sensor_id;sensor_type;location;lat;lon;timestamp;temperature;humidity
8711;DHT22;4392;47.400;8.062;2023-01-15T00:01:03;12.30;77.20
8711;DHT22;4392;47.400;8.062;2023-01-15T00:03:29;12.20;78.10
8711;DHT22;4392;47.400;8.062;2023-01-15T00:06:02;12.30;79.30
8711;DHT22;4392;47.400;8.062;2023-01-15T00:08:28;12.50;78.60
8711;DHT22;4392;47.400;8.062;2023-01-15T00:10:53;12.70;77.40
8711;DHT22;4392;47.400;8.062;2023-01-15T00:13:20;12.30;78.10
8711;DHT22;4392;47.400;8.062;2023-01-15T00:15:46;12.00;79.50
8711;DHT22;4392;47.400;8.062;2023-01-15T00:18:12;11.90;80.20
8711;DHT22;4392;47.400;8.062;2023-01-15T00:20:39;11.80;81.10
8711;DHT22;4392;47.400;8.062;2023-01-15T00:23:06;11.70;81.50
8711;DHT22;4392;47.400;8.062;2023-01-15T00:25:55;11.60;81.60
8711;DHT22;4392;47.400;8.062;2023-01-15T00:28:39;11.50;82.40
8711;DHT22;4392;47.400;8.062;2023-01-15T00:31:05;11.70;82.70
8711;DHT22;4392;47.400;8.062;2023-01-15T00:33:31;11.60;83.70
8711;DHT22;4392;47.400;8.062;2023-01-15T00:35:57;11.60;84.30
8711;DHT22;4392;47.400;8.062;2023-01-15T00:38:22;11.60;84.90
8711;DHT22;4392;47.400;8.062;2023-01-15T00:40:48;11.50;85.60
8711;DHT22;4392;47.400;8.062;2023-01-15T00:43:17;11.70;86.80
8711;DHT22;4392;47.400;8.062;2023-01-15T00:45:43;11.70;86.90
8711;DHT22;4392;47.400;8.062;2023-01-15T00:48:11;11.60;87.40
8711;DHT22;4392;47.400;8.062;2023-01-15T00:50:37;11.60;87.80
8711;DHT22;4392;47.400;8.062;2023-01-15T00:53:05;11.70;88.20
8711;DHT22;4392;47.400;8.062;2023-01-15T00:55:31;11.60;88.50
8711;DHT22;4392;47.400;8.062;2023-01-15T00:57:56;11.60;89.30
8711;DHT22;4392;47.400;8.062;2023-01-15T01:00:24;11.60;89.40
8711;DHT22;4392;47.400;8.062;2023-01-15T01:02:50;11.60;89.90
8711;DHT22;4392;47.400;8.062;2023-01-15T01:05:16;11.70;90.00
8711;DHT22;4392;47.400;8.062;2023-01-15T01:07:44;11.60;90.30
8711;DHT22;4392;47.400;8.062;2023-01-15T01:10:09;11.50;90.50
8711;DHT22;4392;47.400;8.062;2023-01-15T01:12:35;11.50;90.80
8711;DHT22;4392;47.400;8.062;2023-01-15T01:15:02;11.50;91.00
8711;DHT22;4392;47.400;8.062;2023-01-15T01:17:28;11.50;91.20
8711;DHT22;4392;47.400;8.062;2023-01-15T01:19:54;11.40;91.40
8711;DHT22;4392;47.400;8.062;2023-01-15T01:22:19;11.40;91.60
8711;DHT22;4392;47.400;8.062;2023-01-15T01:24:45;11.40;91.70
8711;DHT22;4392;47.400;8.062;2023-01-15T01:27:11;11.40;91.90
8711;DHT22;4392;47.400;8.062;2023-01-15T01:29:38;11.40;91.80
8711;DHT22;4392;47.400;8.062;2023-01-15T01:32:04;11.40;91.90
8711;DHT22;4392;47.400;8.062;2023-01-15T01:34:29;11.30;92.00
8711;DHT22;4392;47.400;8.062;2023-01-15T01:36:58;11.30;92.20
8711;DHT22;4392;47.400;8.062;2023-01-15T01:39:23;11.30;92.30
8711;DHT22;4392;47.400;8.062;2023-01-15T01:41:49;11.30;92.40
8711;DHT22;4392;47.400;8.062;2023-01-15T01:47:07;11.20;92.80
8711;DHT22;4392;47.400;8.062;2023-01-15T01:49:35;11.30;93.10
8711;DHT22;4392;47.400;8.062;2023-01-15T01:52:05;11.40;93.20
8711;DHT22;4392;47.400;8.062;2023-01-15T01:54:33;11.40;93.50
8711;DHT22;4392;47.400;8.062;2023-01-15T01:57:00;11.40;93.30
8711;DHT22;4392;47.400;8.062;2023-01-15T01:59:26;11.40;93.50
8711;DHT22;4392;47.400;8.062;2023-01-15T02:01:52;11.50;93.40
8711;DHT22;4392;47.400;8.062;2023-01-15T02:04:22;11.50;93.80
8711;DHT22;4392;47.400;8.062;2023-01-15T02:06:50;11.40;93.80
8711;DHT22;4392;47.400;8.062;2023-01-15T02:09:16;11.50;93.80
8711;DHT22;4392;47.400;8.062;2023-01-15T02:11:44;12.10;93.70
8711;DHT22;4392;47.400;8.062;2023-01-15T02:17:13;12.00;93.60
8711;DHT22;4392;47.400;8.062;2023-01-15T02:28:27;12.30;93.60
8711;DHT22;4392;47.400;8.062;2023-01-15T02:33:54;12.30;94.00
8711;DHT22;4392;47.400;8.062;2023-01-15T02:36:23;12.40;94.00
8711;DHT22;4392;47.400;8.062;2023-01-15T02:38:54;12.40;93.90
8711;DHT22;4392;47.400;8.062;2023-01-15T02:41:27;12.40;94.00
8711;DHT22;4392;47.400;8.062;2023-01-15T02:43:56;12.30;94.30
8711;DHT22;4392;47.400;8.062;2023-01-15T02:46:28;12.40;94.50
8711;DHT22;4392;47.400;8.062;2023-01-15T02:48:56;12.20;95.00
8711;DHT22;4392;47.400;8.062;2023-01-15T02:51:26;12.40;94.80
8711;DHT22;4392;47.400;8.062;2023-01-15T02:53:55;12.40;94.80
8711;DHT22;4392;47.400;8.062;2023-01-15T02:56:25;12.10;95.50
8711;DHT22;4392;47.400;8.062;2023-01-15T02:58:55;11.90;96.40
8711;DHT22;4392;47.400;8.062;2023-01-15T03:01:27;11.70;97.10
8711;DHT22;4392;47.400;8.062;2023-01-15T03:09:11;11.50;99.90
8711;DHT22;4392;47.400;8.062;2023-01-15T03:11:47;11.40;99.90
8711;DHT22;4392;47.400;8.062;2023-01-15T03:14:23;11.40;99.90
8711;DHT22;4392;47.400;8.062;2023-01-15T03:16:54;11.40;99.90
8711;DHT22;4392;47.400;8.062;2023-01-15T03:19:35;11.30;99.90
8711;DHT22;4392;47.400;8.062;2023-01-15T03:24:46;11.20;99.90
8711;DHT22;4392;47.400;8.062;2023-01-15T03:27:13;11.30;99.90
8711;DHT22;4392;47.400;8.062;2023-01-15T03:29:58;11.30;99.90
8711;DHT22;4392;47.400;8.062;2023-01-15T03:32:25;11.30;99.90
8711;DHT22;4392;47.400;8.062;2023-01-15T03:34:53;11.10;99.90
8711;DHT22;4392;47.400;8.062;2023-01-15T03:37:21;11.10;99.90
8711;DHT22;4392;47.400;8.062;2023-01-15T03:39:49;11.10;99.90
8711;DHT22;4392;47.400;8.062;2023-01-15T03:45:12;11.10;99.90
8711;DHT22;4392;47.400;8.062;2023-01-15T03:55:42;11.30;99.90
8711;DHT22;4392;47.400;8.062;2023-01-15T04:01:02;11.00;99.90
8711;DHT22;4392;47.400;8.062;2023-01-15T04:03:29;10.90;99.90
8711;DHT22;4392;47.400;8.062;2023-01-15T04:05:59;10.90;99.90
8711;DHT22;4392;47.400;8.062;2023-01-15T04:08:31;10.80;99.90
8711;DHT22;4392;47.400;8.062;2023-01-15T04:10:59;10.80;99.90
8711;DHT22;4392;47.400;8.062;2023-01-15T04:13:26;10.60;99.90
8711;DHT22;4392;47.400;8.062;2023-01-15T04:15:52;10.60;99.90
8711;DHT22;4392;47.400;8.062;2023-01-15T04:18:19;10.50;99.90
8711;DHT22;4392;47.400;8.062;2023-01-15T04:20:45;10.60;99.90
8711;DHT22;4392;47.400;8.062;2023-01-15T04:23:13;10.60;99.90
8711;DHT22;4392;47.400;8.062;2023-01-15T04:25:38;10.60;99.90
8711;DHT22;4392;47.400;8.062;2023-01-15T04:28:05;10.70;99.90
8711;DHT22;4392;47.400;8.062;2023-01-15T04:30:31;10.60;99.90
8711;DHT22;4392;47.400;8.062;2023-01-15T04:32:57;10.70;99.90
8711;DHT22;4392;47.400;8.062;2023-01-15T04:35:23;10.70;99.90
8711;DHT22;4392;47.400;8.062;2023-01-15T04:37:48;10.60;99.90
8711;DHT22;4392;47.400;8.062;2023-01-15T04:40:18;10.50;99.90
8711;DHT22;4392;47.400;8.062;2023-01-15T04:43:02;10.50;99.90
8711;DHT22;4392;47.400;8.062;2023-01-15T04:45:46;10.60;99.90
8711;DHT22;4392;47.400;8.062;2023-01-15T04:48:12;10.60;99.90
8711;DHT22;4392;47.400;8.062;2023-01-15T04:50:38;10.60;99.90
8711;DHT22;4392;47.400;8.062;2023-01-15T04:53:04;10.50;99.90
8711;DHT22;4392;47.400;8.062;2023-01-15T04:55:31;10.60;99.90
8711;DHT22;4392;47.400;8.062;2023-01-15T04:57:56;10.50;99.90
8711;DHT22;4392;47.400;8.062;2023-01-15T05:00:22;10.60;99.90
8711;DHT22;4392;47.400;8.062;2023-01-15T05:02:48;10.50;99.90
8711;DHT22;4392;47.400;8.062;2023-01-15T05:05:15;10.50;99.90
8711;DHT22;4392;47.400;8.062;2023-01-15T05:07:43;10.50;99.90
8711;DHT22;4392;47.400;8.062;2023-01-15T05:10:09;10.60;99.90
8711;DHT22;4392;47.400;8.062;2023-01-15T05:12:35;10.50;99.90
8711;DHT22;4392;47.400;8.062;2023-01-15T05:15:04;10.50;99.90
8711;DHT22;4392;47.400;8.062;2023-01-15T05:17:31;10.50;99.90
8711;DHT22;4392;47.400;8.062;2023-01-15T05:19:57;10.50;99.90
8711;DHT22;4392;47.400;8.062;2023-01-15T05:22:23;10.50;99.90
8711;DHT22;4392;47.400;8.062;2023-01-15T05:24:48;10.50;99.90
8711;DHT22;4392;47.400;8.062;2023-01-15T05:27:14;10.60;99.90
8711;DHT22;4392;47.400;8.062;2023-01-15T05:29:40;10.60;99.90
8711;DHT22;4392;47.400;8.062;2023-01-15T05:32:08;10.50;99.90
8711;DHT22;4392;47.400;8.062;2023-01-15T05:34:34;10.50;99.90
8711;DHT22;4392;47.400;8.062;2023-01-15T05:36:59;10.50;99.90
8711;DHT22;4392;47.400;8.062;2023-01-15T05:39:25;10.50;99.90
8711;DHT22;4392;47.400;8.062;2023-01-15T05:41:51;10.40;99.90
8711;DHT22;4392;47.400;8.062;2023-01-15T05:44:28;10.40;99.90
8711;DHT22;4392;47.400;8.062;2023-01-15T05:46:58;10.50;99.90
8711;DHT22;4392;47.400;8.062;2023-01-15T05:49:28;10.50;99.90
8711;DHT22;4392;47.400;8.062;2023-01-15T05:51:58;10.50;99.90
8711;DHT22;4392;47.400;8.062;2023-01-15T05:54:28;10.50;99.90
8711;DHT22;4392;47.400;8.062;2023-01-15T05:56:54;10.50;99.90
8711;DHT22;4392;47.400;8.062;2023-01-15T05:59:23;10.50;99.90
8711;DHT22;4392;47.400;8.062;2023-01-15T06:01:49;10.50;99.90
8711;DHT22;4392;47.400;8.062;2023-01-15T06:04:18;10.30;99.90
8711;DHT22;4392;47.400;8.062;2023-01-15T06:06:46;10.30;99.90
8711;DHT22;4392;47.400;8.062;2023-01-15T06:09:12;10.50;99.90
8711;DHT22;4392;47.400;8.062;2023-01-15T06:11:41;10.50;99.90
8711;DHT22;4392;47.400;8.062;2023-01-15T06:14:07;10.60;99.90
8711;DHT22;4392;47.400;8.062;2023-01-15T06:16:35;10.50;99.90
8711;DHT22;4392;47.400;8.062;2023-01-15T06:19:02;10.50;99.90
8711;DHT22;4392;47.400;8.062;2023-01-15T06:21:29;10.40;99.90
8711;DHT22;4392;47.400;8.062;2023-01-15T06:23:55;10.50;99.90
8711;DHT22;4392;47.400;8.062;2023-01-15T06:26:21;10.40;99.90
8711;DHT22;4392;47.400;8.062;2023-01-15T06:28:48;10.50;99.90
8711;DHT22;4392;47.400;8.062;2023-01-15T06:31:16;10.40;99.90
8711;DHT22;4392;47.400;8.062;2023-01-15T06:33:43;10.50;99.90
8711;DHT22;4392;47.400;8.062;2023-01-15T06:36:20;10.50;99.90
8711;DHT22;4392;47.400;8.062;2023-01-15T06:38:47;10.60;99.90
8711;DHT22;4392;47.400;8.062;2023-01-15T06:41:20;10.70;99.90
8711;DHT22;4392;47.400;8.062;2023-01-15T06:44:05;10.60;99.90
8711;DHT22;4392;47.400;8.062;2023-01-15T06:46:50;10.60;99.90
8711;DHT22;4392;47.400;8.062;2023-01-15T06:49:35;10.70;99.90
8711;DHT22;4392;47.400;8.062;2023-01-15T06:52:02;10.80;99.90
8711;DHT22;4392;47.400;8.062;2023-01-15T06:54:29;10.60;99.90
8711;DHT22;4392;47.400;8.062;2023-01-15T06:56:55;10.70;99.90
8711;DHT22;4392;47.400;8.062;2023-01-15T06:59:21;10.70;99.90
8711;DHT22;4392;47.400;8.062;2023-01-15T07:01:51;10.80;99.90
8711;DHT22;4392;47.400;8.062;2023-01-15T07:04:17;10.80;99.90
8711;DHT22;4392;47.400;8.062;2023-01-15T07:06:43;10.80;99.90
8711;DHT22;4392;47.400;8.062;2023-01-15T07:09:08;10.80;99.90
8711;DHT22;4392;47.400;8.062;2023-01-15T07:11:36;10.80;99.90
8711;DHT22;4392;47.400;8.062;2023-01-15T07:14:15;10.80;99.90
8711;DHT22;4392;47.400;8.062;2023-01-15T07:16:41;10.90;99.90
8711;DHT22;4392;47.400;8.062;2023-01-15T07:19:07;10.70;99.90
8711;DHT22;4392;47.400;8.062;2023-01-15T07:21:35;10.70;99.90
8711;DHT22;4392;47.400;8.062;2023-01-15T07:24:01;10.70;99.90
8711;DHT22;4392;47.400;8.062;2023-01-15T07:26:27;10.70;99.90
8711;DHT22;4392;47.400;8.062;2023-01-15T07:28:53;10.70;99.90
8711;DHT22;4392;47.400;8.062;2023-01-15T07:31:19;10.70;99.90
8711;DHT22;4392;47.400;8.062;2023-01-15T07:33:44;10.80;99.90
8711;DHT22;4392;47.400;8.062;2023-01-15T07:36:10;10.70;99.90
8711;DHT22;4392;47.400;8.062;2023-01-15T07:38:36;10.70;99.90
8711;DHT22;4392;47.400;8.062;2023-01-15T07:41:02;10.70;99.90
8711;DHT22;4392;47.400;8.062;2023-01-15T07:43:46;10.80;99.90
8711;DHT22;4392;47.400;8.062;2023-01-15T07:46:30;10.80;99.90
8711;DHT22;4392;47.400;8.062;2023-01-15T07:49:15;10.80;99.90
8711;DHT22;4392;47.400;8.062;2023-01-15T07:51:59;10.80;99.90
8711;DHT22;4392;47.400;8.062;2023-01-15T07:54:25;10.80;99.90
8711;DHT22;4392;47.400;8.062;2023-01-15T07:56:52;10.80;99.90
8711;DHT22;4392;47.400;8.062;2023-01-15T07:59:18;10.80;99.90
8711;DHT22;4392;47.400;8.062;2023-01-15T08:01:44;10.90;99.90
8711;DHT22;4392;47.400;8.062;2023-01-15T08:04:10;10.80;99.90
8711;DHT22;4392;47.400;8.062;2023-01-15T08:06:36;10.80;99.90
8711;DHT22;4392;47.400;8.062;2023-01-15T08:09:04;10.70;99.90
8711;DHT22;4392;47.400;8.062;2023-01-15T08:11:31;10.60;99.90
8711;DHT22;4392;47.400;8.062;2023-01-15T08:14:16;10.40;99.90
8711;DHT22;4392;47.400;8.062;2023-01-15T08:17:00;10.20;99.90
8711;DHT22;4392;47.400;8.062;2023-01-15T08:19:25;9.90;99.90
8711;DHT22;4392;47.400;8.062;2023-01-15T08:21:54;9.50;99.90
8711;DHT22;4392;47.400;8.062;2023-01-15T08:24:21;9.40;99.90
8711;DHT22;4392;47.400;8.062;2023-01-15T08:26:47;8.90;99.90
8711;DHT22;4392;47.400;8.062;2023-01-15T08:29:15;8.70;99.90
8711;DHT22;4392;47.400;8.062;2023-01-15T08:31:41;8.40;99.90
8711;DHT22;4392;47.400;8.062;2023-01-15T08:34:07;8.30;99.90
8711;DHT22;4392;47.400;8.062;2023-01-15T08:36:33;8.30;99.90
8711;DHT22;4392;47.400;8.062;2023-01-15T08:39:02;8.30;99.90
8711;DHT22;4392;47.400;8.062;2023-01-15T08:41:31;8.10;99.90
8711;DHT22;4392;47.400;8.062;2023-01-15T08:43:57;7.90;99.90
8711;DHT22;4392;47.400;8.062;2023-01-15T08:46:24;7.80;99.90
8711;DHT22;4392;47.400;8.062;2023-01-15T08:48:50;7.60;99.90
8711;DHT22;4392;47.400;8.062;2023-01-15T08:51:15;7.60;99.90
8711;DHT22;4392;47.400;8.062;2023-01-15T08:53:41;7.50;99.90
8711;DHT22;4392;47.400;8.062;2023-01-15T08:56:18;7.50;99.90
8711;DHT22;4392;47.400;8.062;2023-01-15T08:58:46;7.30;99.90
8711;DHT22;4392;47.400;8.062;2023-01-15T09:01:13;7.50;99.90
8711;DHT22;4392;47.400;8.062;2023-01-15T09:03:41;7.50;99.90
8711;DHT22;4392;47.400;8.062;2023-01-15T09:06:07;7.50;99.90
8711;DHT22;4392;47.400;8.062;2023-01-15T09:08:34;7.40;99.90
8711;DHT22;4392;47.400;8.062;2023-01-15T09:11:01;7.50;99.90
8711;DHT22;4392;47.400;8.062;2023-01-15T09:13:28;7.40;99.90
8711;DHT22;4392;47.400;8.062;2023-01-15T09:15:58;7.40;99.90
8711;DHT22;4392;47.400;8.062;2023-01-15T09:18:24;7.10;99.90
8711;DHT22;4392;47.400;8.062;2023-01-15T09:20:50;7.30;99.90
8711;DHT22;4392;47.400;8.062;2023-01-15T09:23:16;7.20;99.90
8711;DHT22;4392;47.400;8.062;2023-01-15T09:25:53;7.30;99.90
8711;DHT22;4392;47.400;8.062;2023-01-15T09:28:19;7.60;99.90
8711;DHT22;4392;47.400;8.062;2023-01-15T09:30:45;7.80;99.90
8711;DHT22;4392;47.400;8.062;2023-01-15T09:33:11;7.70;99.90
8711;DHT22;4392;47.400;8.062;2023-01-15T09:35:39;7.70;99.90
8711;DHT22;4392;47.400;8.062;2023-01-15T09:38:08;7.40;99.90
8711;DHT22;4392;47.400;8.062;2023-01-15T09:43:23;7.60;99.90
8711;DHT22;4392;47.400;8.062;2023-01-15T09:46:59;7.80;99.90
8711;DHT22;4392;47.400;8.062;2023-01-15T09:57:18;7.20;99.90
8711;DHT22;4392;47.400;8.062;2023-01-15T09:59:47;7.20;99.90
8711;DHT22;4392;47.400;8.062;2023-01-15T10:02:21;7.00;99.90
8711;DHT22;4392;47.400;8.062;2023-01-15T10:05:03;7.10;99.90
8711;DHT22;4392;47.400;8.062;2023-01-15T10:07:35;7.00;99.90
8711;DHT22;4392;47.400;8.062;2023-01-15T10:10:08;7.10;99.90
8711;DHT22;4392;47.400;8.062;2023-01-15T10:12:35;7.10;99.90
8711;DHT22;4392;47.400;8.062;2023-01-15T10:17:46;6.80;99.90
8711;DHT22;4392;47.400;8.062;2023-01-15T10:23:06;7.00;99.90
8711;DHT22;4392;47.400;8.062;2023-01-15T10:25:56;6.90;99.90
8711;DHT22;4392;47.400;8.062;2023-01-15T10:28:31;7.20;99.90
8711;DHT22;4392;47.400;8.062;2023-01-15T10:34:13;7.00;99.90
8711;DHT22;4392;47.400;8.062;2023-01-15T10:40:45;6.70;99.90
8711;DHT22;4392;47.400;8.062;2023-01-15T10:45:27;7.20;99.90
8711;DHT22;4392;47.400;8.062;2023-01-15T10:50:42;7.10;99.90
8711;DHT22;4392;47.400;8.062;2023-01-15T10:53:22;7.10;99.90
8711;DHT22;4392;47.400;8.062;2023-01-15T10:55:54;7.20;99.90
8711;DHT22;4392;47.400;8.062;2023-01-15T10:58:26;7.10;99.90
8711;DHT22;4392;47.400;8.062;2023-01-15T11:01:05;6.80;99.90
8711;DHT22;4392;47.400;8.062;2023-01-15T11:03:40;7.00;99.90
8711;DHT22;4392;47.400;8.062;2023-01-15T11:06:13;7.00;99.90
8711;DHT22;4392;47.400;8.062;2023-01-15T11:08:45;7.00;99.90
8711;DHT22;4392;47.400;8.062;2023-01-15T11:11:19;7.00;99.90
8711;DHT22;4392;47.400;8.062;2023-01-15T11:13:55;6.80;99.90
8711;DHT22;4392;47.400;8.062;2023-01-15T11:16:47;6.90;99.90
8711;DHT22;4392;47.400;8.062;2023-01-15T11:19:37;7.00;99.90
8711;DHT22;4392;47.400;8.062;2023-01-15T11:22:18;7.20;99.90
8711;DHT22;4392;47.400;8.062;2023-01-15T11:24:50;7.20;99.90
8711;DHT22;4392;47.400;8.062;2023-01-15T11:27:28;7.30;99.90
8711;DHT22;4392;47.400;8.062;2023-01-15T11:29:59;7.40;99.90
8711;DHT22;4392;47.400;8.062;2023-01-15T11:34:57;7.30;99.90
8711;DHT22;4392;47.400;8.062;2023-01-15T11:37:24;7.40;99.90
8711;DHT22;4392;47.400;8.062;2023-01-15T11:39:57;7.40;99.90
8711;DHT22;4392;47.400;8.062;2023-01-15T11:42:29;7.30;99.90
8711;DHT22;4392;47.400;8.062;2023-01-15T11:45:19;7.40;99.90
8711;DHT22;4392;47.400;8.062;2023-01-15T11:48:15;7.30;99.90
8711;DHT22;4392;47.400;8.062;2023-01-15T11:51:14;7.30;99.90
8711;DHT22;4392;47.400;8.062;2023-01-15T11:53:44;7.30;99.90
8711;DHT22;4392;47.400;8.062;2023-01-15T11:56:15;7.10;99.90
8711;DHT22;4392;47.400;8.062;2023-01-15T11:58:46;7.10;99.90
8711;DHT22;4392;47.400;8.062;2023-01-15T12:01:19;6.80;99.90
8711;DHT22;4392;47.400;8.062;2023-01-15T12:03:45;7.00;99.90
8711;DHT22;4392;47.400;8.062;2023-01-15T12:06:13;7.20;99.90
8711;DHT22;4392;47.400;8.062;2023-01-15T12:08:52;7.20;99.90
8711;DHT22;4392;47.400;8.062;2023-01-15T12:20:56;6.90;99.90
8711;DHT22;4392;47.400;8.062;2023-01-15T12:26:25;7.10;99.90
8711;DHT22;4392;47.400;8.062;2023-01-15T12:29:16;7.10;99.90
8711;DHT22;4392;47.400;8.062;2023-01-15T12:32:01;6.80;99.90
8711;DHT22;4392;47.400;8.062;2023-01-15T12:37:18;7.00;99.90
8711;DHT22;4392;47.400;8.062;2023-01-15T12:40:16;7.10;99.90
8711;DHT22;4392;47.400;8.062;2023-01-15T12:42:45;7.20;99.90
8711;DHT22;4392;47.400;8.062;2023-01-15T12:45:35;7.10;99.90
8711;DHT22;4392;47.400;8.062;2023-01-15T12:48:24;7.20;99.90
8711;DHT22;4392;47.400;8.062;2023-01-15T12:50:53;7.30;99.90
8711;DHT22;4392;47.400;8.062;2023-01-15T12:56:00;9.50;99.90
8711;DHT22;4392;47.400;8.062;2023-01-15T12:58:51;10.40;99.90
8711;DHT22;4392;47.400;8.062;2023-01-15T13:01:47;10.70;99.90
8711;DHT22;4392;47.400;8.062;2023-01-15T13:04:29;10.90;99.90
8711;DHT22;4392;47.400;8.062;2023-01-15T13:07:04;11.20;99.90
8711;DHT22;4392;47.400;8.062;2023-01-15T13:12:34;11.30;99.90
8711;DHT22;4392;47.400;8.062;2023-01-15T13:15:00;11.30;99.50
8711;DHT22;4392;47.400;8.062;2023-01-15T13:32:00;11.70;93.50
8711;DHT22;4392;47.400;8.062;2023-01-15T13:34:46;12.10;92.90
8711;DHT22;4392;47.400;8.062;2023-01-15T13:39:44;12.20;91.60
8711;DHT22;4392;47.400;8.062;2023-01-15T13:42:31;12.20;91.00
8711;DHT22;4392;47.400;8.062;2023-01-15T13:45:04;12.30;90.50
8711;DHT22;4392;47.400;8.062;2023-01-15T13:47:33;12.30;90.20
8711;DHT22;4392;47.400;8.062;2023-01-15T13:50:04;12.40;89.70
8711;DHT22;4392;47.400;8.062;2023-01-15T13:52:34;12.40;89.20
8711;DHT22;4392;47.400;8.062;2023-01-15T13:55:27;12.40;88.60
8711;DHT22;4392;47.400;8.062;2023-01-15T13:57:54;12.40;88.10
8711;DHT22;4392;47.400;8.062;2023-01-15T14:00:36;12.10;85.40
8711;DHT22;4392;47.400;8.062;2023-01-15T14:03:25;11.30;90.80
8711;DHT22;4392;47.400;8.062;2023-01-15T14:05:59;11.80;90.00
8711;DHT22;4392;47.400;8.062;2023-01-15T14:08:28;11.90;88.90
8711;DHT22;4392;47.400;8.062;2023-01-15T14:11:00;12.00;88.20
8711;DHT22;4392;47.400;8.062;2023-01-15T14:16:17;12.00;87.00
8711;DHT22;4392;47.400;8.062;2023-01-15T14:27:51;11.90;86.30
8711;DHT22;4392;47.400;8.062;2023-01-15T14:35:19;12.10;83.00
8711;DHT22;4392;47.400;8.062;2023-01-15T14:40:29;12.00;82.00
8711;DHT22;4392;47.400;8.062;2023-01-15T14:42:59;12.20;81.30
8711;DHT22;4392;47.400;8.062;2023-01-15T14:45:29;12.30;81.00
8711;DHT22;4392;47.400;8.062;2023-01-15T14:48:00;12.30;80.70
8711;DHT22;4392;47.400;8.062;2023-01-15T14:50:37;12.00;79.90
8711;DHT22;4392;47.400;8.062;2023-01-15T15:06:24;10.90;87.50
8711;DHT22;4392;47.400;8.062;2023-01-15T15:08:51;10.80;87.10
8711;DHT22;4392;47.400;8.062;2023-01-15T15:11:42;10.80;86.20
8711;DHT22;4392;47.400;8.062;2023-01-15T15:14:37;10.70;84.90
8711;DHT22;4392;47.400;8.062;2023-01-15T15:17:06;10.70;85.30
8711;DHT22;4392;47.400;8.062;2023-01-15T15:19:41;10.50;85.00
8711;DHT22;4392;47.400;8.062;2023-01-15T15:22:12;10.70;90.80
8711;DHT22;4392;47.400;8.062;2023-01-15T15:24:47;10.60;86.30
8711;DHT22;4392;47.400;8.062;2023-01-15T15:27:20;10.20;85.90
8711;DHT22;4392;47.400;8.062;2023-01-15T15:29:47;9.90;88.30
8711;DHT22;4392;47.400;8.062;2023-01-15T15:32:20;9.90;88.10
8711;DHT22;4392;47.400;8.062;2023-01-15T15:34:49;9.90;88.00
8711;DHT22;4392;47.400;8.062;2023-01-15T15:37:21;9.80;88.20
8711;DHT22;4392;47.400;8.062;2023-01-15T15:40:02;9.90;87.70
8711;DHT22;4392;47.400;8.062;2023-01-15T15:43:02;9.80;88.10
8711;DHT22;4392;47.400;8.062;2023-01-15T15:45:55;9.80;87.60
8711;DHT22;4392;47.400;8.062;2023-01-15T15:48:42;9.60;88.00
8711;DHT22;4392;47.400;8.062;2023-01-15T15:54:17;9.30;88.30
8711;DHT22;4392;47.400;8.062;2023-01-15T15:59:30;9.20;88.80
8711;DHT22;4392;47.400;8.062;2023-01-15T16:01:59;9.60;93.00
8711;DHT22;4392;47.400;8.062;2023-01-15T16:04:25;9.50;88.90
8711;DHT22;4392;47.400;8.062;2023-01-15T16:06:51;9.20;88.30
8711;DHT22;4392;47.400;8.062;2023-01-15T16:09:22;9.00;88.30
8711;DHT22;4392;47.400;8.062;2023-01-15T16:11:50;8.90;89.50
8711;DHT22;4392;47.400;8.062;2023-01-15T16:14:17;8.80;89.90
8711;DHT22;4392;47.400;8.062;2023-01-15T16:16:45;8.70;90.10
8711;DHT22;4392;47.400;8.062;2023-01-15T16:19:18;8.70;90.20
8711;DHT22;4392;47.400;8.062;2023-01-15T16:21:46;8.60;90.60
8711;DHT22;4392;47.400;8.062;2023-01-15T16:24:26;8.50;90.70
8711;DHT22;4392;47.400;8.062;2023-01-15T16:26:58;8.40;91.00
8711;DHT22;4392;47.400;8.062;2023-01-15T16:29:28;8.40;91.30
8711;DHT22;4392;47.400;8.062;2023-01-15T16:31:54;8.30;91.70
8711;DHT22;4392;47.400;8.062;2023-01-15T16:34:25;8.20;92.00
8711;DHT22;4392;47.400;8.062;2023-01-15T16:36:53;8.20;91.90
8711;DHT22;4392;47.400;8.062;2023-01-15T16:39:31;8.10;92.40
8711;DHT22;4392;47.400;8.062;2023-01-15T16:42:02;8.10;92.20
8711;DHT22;4392;47.400;8.062;2023-01-15T16:44:35;8.10;92.10
8711;DHT22;4392;47.400;8.062;2023-01-15T16:47:02;8.00;92.40
8711;DHT22;4392;47.400;8.062;2023-01-15T16:49:31;8.00;92.60
8711;DHT22;4392;47.400;8.062;2023-01-15T16:51:59;8.20;93.20
8711;DHT22;4392;47.400;8.062;2023-01-15T17:01:55;7.90;92.80
8711;DHT22;4392;47.400;8.062;2023-01-15T17:07:05;7.80;93.10
8711;DHT22;4392;47.400;8.062;2023-01-15T17:09:36;7.80;93.30
8711;DHT22;4392;47.400;8.062;2023-01-15T17:12:08;9.50;99.90
8711;DHT22;4392;47.400;8.062;2023-01-15T17:14:40;9.00;99.90
8711;DHT22;4392;47.400;8.062;2023-01-15T17:17:23;8.40;98.80
8711;DHT22;4392;47.400;8.062;2023-01-15T17:19:50;8.10;98.90
8711;DHT22;4392;47.400;8.062;2023-01-15T17:22:25;8.10;99.90
8711;DHT22;4392;47.400;8.062;2023-01-15T17:24:55;9.60;99.90
8711;DHT22;4392;47.400;8.062;2023-01-15T17:27:23;10.70;99.90
8711;DHT22;4392;47.400;8.062;2023-01-15T17:29:49;11.00;99.90
8711;DHT22;4392;47.400;8.062;2023-01-15T17:32:17;11.40;99.90
8711;DHT22;4392;47.400;8.062;2023-01-15T17:34:45;11.60;99.00
8711;DHT22;4392;47.400;8.062;2023-01-15T17:37:11;11.70;96.40
8711;DHT22;4392;47.400;8.062;2023-01-15T17:39:36;11.80;94.50
8711;DHT22;4392;47.400;8.062;2023-01-15T17:42:15;11.90;93.00
8711;DHT22;4392;47.400;8.062;2023-01-15T17:44:41;12.00;91.70
8711;DHT22;4392;47.400;8.062;2023-01-15T17:47:07;12.10;90.80
8711;DHT22;4392;47.400;8.062;2023-01-15T17:49:33;12.10;90.00
8711;DHT22;4392;47.400;8.062;2023-01-15T17:52:00;12.20;88.70
8711;DHT22;4392;47.400;8.062;2023-01-15T17:54:26;12.20;87.70
8711;DHT22;4392;47.400;8.062;2023-01-15T17:57:11;12.30;86.30
8711;DHT22;4392;47.400;8.062;2023-01-15T17:59:55;12.30;85.20
8711;DHT22;4392;47.400;8.062;2023-01-15T18:02:39;12.40;84.20
8711;DHT22;4392;47.400;8.062;2023-01-15T18:05:24;12.40;83.30
8711;DHT22;4392;47.400;8.062;2023-01-15T18:07:50;12.40;82.50
8711;DHT22;4392;47.400;8.062;2023-01-15T18:10:17;12.10;82.10
8711;DHT22;4392;47.400;8.062;2023-01-15T18:12:46;11.90;83.10
8711;DHT22;4392;47.400;8.062;2023-01-15T18:15:12;11.80;82.50
8711;DHT22;4392;47.400;8.062;2023-01-15T18:17:38;11.80;82.80
8711;DHT22;4392;47.400;8.062;2023-01-15T18:20:04;11.80;83.00
8711;DHT22;4392;47.400;8.062;2023-01-15T18:22:30;11.90;82.10
8711;DHT22;4392;47.400;8.062;2023-01-15T18:24:56;11.90;82.30
8711;DHT22;4392;47.400;8.062;2023-01-15T18:27:22;11.90;81.90
8711;DHT22;4392;47.400;8.062;2023-01-15T18:29:52;11.90;81.90
8711;DHT22;4392;47.400;8.062;2023-01-15T18:32:17;12.00;83.00
8711;DHT22;4392;47.400;8.062;2023-01-15T18:34:45;11.20;78.50
8711;DHT22;4392;47.400;8.062;2023-01-15T18:37:10;10.20;81.40
8711;DHT22;4392;47.400;8.062;2023-01-15T18:39:37;9.60;84.30
8711;DHT22;4392;47.400;8.062;2023-01-15T18:42:04;9.20;85.20
8711;DHT22;4392;47.400;8.062;2023-01-15T18:44:29;8.90;86.80
8711;DHT22;4392;47.400;8.062;2023-01-15T18:47:15;8.70;88.30
8711;DHT22;4392;47.400;8.062;2023-01-15T18:49:43;8.60;89.40
8711;DHT22;4392;47.400;8.062;2023-01-15T18:52:11;8.60;90.00
8711;DHT22;4392;47.400;8.062;2023-01-15T18:54:56;8.50;90.60
8711;DHT22;4392;47.400;8.062;2023-01-15T18:57:23;8.30;90.40
8711;DHT22;4392;47.400;8.062;2023-01-15T18:59:49;8.30;90.70
8711;DHT22;4392;47.400;8.062;2023-01-15T19:02:17;8.20;90.70
8711;DHT22;4392;47.400;8.062;2023-01-15T19:04:44;9.30;94.50
8711;DHT22;4392;47.400;8.062;2023-01-15T19:07:11;9.00;90.20